オウル の空港の天気 - METARとTAF

オウル空港 ( EFOU / OUL ) - フィンランド Oulunsalo
飛行場実況気象(Metar)
観測時間04/26 13:50 EEST (04/26 10:50 UTC)
風向・風速西 4m/s
視程10km以上
天気現象
全天を覆う雲 雲底高度 2930m
気温5℃
湿度75%
気圧993hPa
METAREFOU 261050Z AUTO 28008KT 9999 OVC096/// 05/01 Q0993
過去の天気等 Google飛行場航空写真 Wunderground天気予報

過去48時間のMETAR

飛行場予報(TAF)
発表時間: 4/26 11:25 EEST (4/26 08:25 UTC)
予報対象時間: 26日12時 EEST ~ 27日12時 EEST
風向・風速西南西 2m/s
視程10km以上
全天の4割程度の雲 雲底高度 1,370m
27日0時 EEST から 確率 40% で
視程1,200m
天気現象散在した霧
全天の8割程度の雲 雲底高度 60m
TAF EFOU 260825Z 2609/2709 25004KT 9999 SCT045
PROB40 2621/2706 1200 BCFG BKN002